createdAt,value
2023-02-12T00:00:44.695Z,19.57
2023-02-12T00:03:11.928Z,19.30
2023-02-12T00:05:39.749Z,21.10
2023-02-12T00:08:06.747Z,21.80
2023-02-12T00:10:33.880Z,20.40
2023-02-12T00:13:00.725Z,17.30
2023-02-12T00:15:27.559Z,17.13
2023-02-12T00:17:54.323Z,17.10
2023-02-12T00:20:21.186Z,18.60
2023-02-12T00:22:47.901Z,18.10
2023-02-12T00:25:14.876Z,20.17
2023-02-12T00:27:41.586Z,20.57
2023-02-12T00:30:08.745Z,18.70
2023-02-12T00:32:37.267Z,18.60
2023-02-12T00:35:04.330Z,17.80
2023-02-12T00:37:31.132Z,12.77
2023-02-12T00:39:57.906Z,12.77
2023-02-12T00:42:24.731Z,12.60
2023-02-12T00:44:51.567Z,12.03
2023-02-12T00:47:18.296Z,13.00
2023-02-12T00:49:45.144Z,11.43
2023-02-12T00:52:11.905Z,12.77
2023-02-12T00:54:38.916Z,12.83
2023-02-12T00:57:05.763Z,13.00
2023-02-12T00:59:32.503Z,14.07
2023-02-12T01:01:59.300Z,14.27
2023-02-12T01:04:26.192Z,11.90
2023-02-12T01:06:52.913Z,13.40
2023-02-12T01:09:19.656Z,13.27
2023-02-12T01:11:46.683Z,13.57
2023-02-12T01:14:13.497Z,13.50
2023-02-12T01:16:40.385Z,13.27
2023-02-12T01:19:07.142Z,13.87
2023-02-12T01:21:35.607Z,13.33
2023-02-12T01:24:02.823Z,13.67
2023-02-12T01:26:31.473Z,13.33
2023-02-12T01:29:02.410Z,13.37
2023-02-12T01:31:37.529Z,12.70
2023-02-12T01:34:06.754Z,12.20
2023-02-12T01:36:33.927Z,12.67
2023-02-12T01:39:02.894Z,13.00
2023-02-12T01:41:39.933Z,13.53
2023-02-12T01:44:12.967Z,12.50
2023-02-12T01:46:40.528Z,12.17
2023-02-12T01:49:14.324Z,12.27
2023-02-12T01:51:42.922Z,12.97
2023-02-12T01:54:13.362Z,11.67
2023-02-12T01:56:40.901Z,10.83
2023-02-12T01:59:08.371Z,10.83
2023-02-12T02:01:35.319Z,10.73
2023-02-12T02:04:13.999Z,10.00
2023-02-12T02:06:53.792Z,10.57
2023-02-12T02:09:20.894Z,11.13
2023-02-12T02:12:06.469Z,10.10
2023-02-12T02:14:33.777Z,9.30
2023-02-12T02:17:00.477Z,9.50
2023-02-12T02:19:52.355Z,8.80
2023-02-12T02:22:34.146Z,8.87
2023-02-12T02:25:19.609Z,8.23
2023-02-12T02:28:15.157Z,7.97
2023-02-12T02:31:15.231Z,9.67
2023-02-12T02:34:05.719Z,8.67
2023-02-12T02:36:54.119Z,8.53
2023-02-12T02:39:48.796Z,8.70
2023-02-12T02:42:56.254Z,9.27
2023-02-12T02:45:33.614Z,8.90
2023-02-12T02:48:04.984Z,8.10
2023-02-12T02:50:35.110Z,8.43
2023-02-12T02:53:08.740Z,8.70
2023-02-12T02:55:50.356Z,9.27
2023-02-12T02:58:26.670Z,9.53
2023-02-12T03:01:06.516Z,8.17
2023-02-12T03:03:43.640Z,9.23
2023-02-12T03:06:28.636Z,8.37
2023-02-12T03:09:09.881Z,8.97
2023-02-12T03:11:36.696Z,9.33
2023-02-12T03:14:18.522Z,7.93
2023-02-12T03:17:08.230Z,8.00
2023-02-12T03:19:44.836Z,7.10
2023-02-12T03:22:21.385Z,6.70
2023-02-12T03:24:53.701Z,7.37
2023-02-12T03:27:28.805Z,6.67
2023-02-12T03:29:56.298Z,6.77
2023-02-12T03:32:47.284Z,6.37
2023-02-12T03:35:13.990Z,6.70
2023-02-12T03:37:49.895Z,6.80
2023-02-12T03:40:28.285Z,6.60
2023-02-12T03:43:12.515Z,5.90
2023-02-12T03:45:49.879Z,6.93
2023-02-12T03:48:31.895Z,6.47
2023-02-12T03:51:20.750Z,6.37
2023-02-12T03:53:48.292Z,6.60
2023-02-12T03:56:20.033Z,6.90
2023-02-12T03:58:46.880Z,7.03
2023-02-12T04:01:14.363Z,6.80
2023-02-12T04:03:41.693Z,6.77
2023-02-12T04:06:29.036Z,6.17
2023-02-12T04:08:59.154Z,6.57
2023-02-12T04:11:39.535Z,6.20
2023-02-12T04:14:45.501Z,7.00
2023-02-12T04:17:27.494Z,7.00
2023-02-12T04:20:17.233Z,6.70
2023-02-12T04:23:02.005Z,6.77
2023-02-12T04:25:40.858Z,6.93
2023-02-12T04:28:15.030Z,6.43
2023-02-12T04:30:47.253Z,6.90
2023-02-12T04:33:20.741Z,7.30
2023-02-12T04:35:52.625Z,6.63
2023-02-12T04:38:43.340Z,7.40
2023-02-12T04:41:10.408Z,7.90
2023-02-12T04:43:38.162Z,7.60
2023-02-12T04:46:07.150Z,7.27
2023-02-12T04:48:34.981Z,7.40
2023-02-12T04:51:02.553Z,7.30
2023-02-12T04:53:29.470Z,7.00
2023-02-12T04:55:56.603Z,6.47
2023-02-12T04:58:23.626Z,7.47
2023-02-12T05:00:50.331Z,6.30
2023-02-12T05:03:17.252Z,6.80
2023-02-12T05:05:44.066Z,6.80
2023-02-12T05:08:10.842Z,6.07
2023-02-12T05:10:37.684Z,6.50
2023-02-12T05:13:04.500Z,5.77
2023-02-12T05:15:31.209Z,5.10
2023-02-12T05:17:57.957Z,6.50
2023-02-12T05:20:24.768Z,5.83
2023-02-12T05:22:53.550Z,4.50
2023-02-12T05:25:20.544Z,6.57
2023-02-12T05:27:47.393Z,5.73
2023-02-12T05:30:14.421Z,6.70
2023-02-12T05:32:41.189Z,6.10
2023-02-12T05:35:08.106Z,6.30
2023-02-12T05:37:36.438Z,5.80
2023-02-12T05:40:07.224Z,6.57
2023-02-12T05:42:34.462Z,6.43
2023-02-12T05:45:01.264Z,5.80
2023-02-12T05:47:28.182Z,5.87
2023-02-12T05:49:55.027Z,6.43
2023-02-12T05:52:21.724Z,6.50
2023-02-12T05:54:50.281Z,5.87
2023-02-12T05:57:17.147Z,6.27
2023-02-12T05:59:43.893Z,6.57
2023-02-12T06:02:10.594Z,6.07
2023-02-12T06:04:37.428Z,5.40
2023-02-12T06:07:04.245Z,5.90
2023-02-12T06:09:31.576Z,5.53
2023-02-12T06:11:58.325Z,5.90
2023-02-12T06:14:25.043Z,5.97
2023-02-12T06:16:52.543Z,6.67
2023-02-12T06:19:20.426Z,4.97
2023-02-12T06:21:47.498Z,5.07
2023-02-12T06:24:16.138Z,5.20
2023-02-12T06:26:43.709Z,4.93
2023-02-12T06:29:10.958Z,5.30
2023-02-12T06:31:38.025Z,5.10
2023-02-12T06:34:08.368Z,4.40
2023-02-12T06:36:41.710Z,4.60
2023-02-12T06:39:09.141Z,4.47
2023-02-12T06:41:35.996Z,4.80
2023-02-12T06:44:03.050Z,3.93
2023-02-12T06:46:30.067Z,4.30
2023-02-12T06:48:59.206Z,4.17
2023-02-12T06:51:27.256Z,4.50
2023-02-12T06:53:55.740Z,4.47
2023-02-12T06:56:24.647Z,4.07
2023-02-12T06:58:59.548Z,3.77
2023-02-12T07:01:28.477Z,2.87
2023-02-12T07:03:57.864Z,3.30
2023-02-12T07:06:26.042Z,3.73
2023-02-12T07:08:52.931Z,3.87
2023-02-12T07:11:27.304Z,4.30
2023-02-12T07:13:54.429Z,3.97
2023-02-12T07:16:21.650Z,4.23
2023-02-12T07:18:48.985Z,4.27
2023-02-12T07:21:16.856Z,4.13
2023-02-12T07:23:50.820Z,4.50
2023-02-12T07:26:19.436Z,3.83
2023-02-12T07:28:46.194Z,4.13
2023-02-12T07:31:15.766Z,4.33
2023-02-12T07:33:43.426Z,4.33
2023-02-12T07:36:13.868Z,4.20
2023-02-12T07:38:40.973Z,3.97
2023-02-12T07:41:17.150Z,3.93
2023-02-12T07:43:45.364Z,3.87
2023-02-12T07:46:18.250Z,3.60
2023-02-12T07:48:46.399Z,3.90
2023-02-12T07:51:15.801Z,3.10
2023-02-12T07:53:43.014Z,3.13
2023-02-12T07:56:15.956Z,3.67
2023-02-12T07:58:45.073Z,3.17
2023-02-12T08:01:13.470Z,5.03
2023-02-12T08:03:40.699Z,12.30
2023-02-12T08:06:13.277Z,5.10
2023-02-12T08:08:40.399Z,4.63
2023-02-12T08:11:09.156Z,3.53
2023-02-12T08:13:36.709Z,2.80
2023-02-12T08:16:15.858Z,2.57
2023-02-12T08:18:43.175Z,2.70
2023-02-12T08:21:21.415Z,2.73
2023-02-12T08:23:51.668Z,2.63
2023-02-12T08:26:33.675Z,2.57
2023-02-12T08:29:09.924Z,2.30
2023-02-12T08:31:45.685Z,2.33
2023-02-12T08:34:38.769Z,2.20
2023-02-12T08:37:06.893Z,2.60
2023-02-12T08:39:33.679Z,2.33
2023-02-12T08:42:01.577Z,2.33
2023-02-12T08:44:29.230Z,2.73
2023-02-12T08:46:56.174Z,2.23
2023-02-12T08:49:25.627Z,2.50
2023-02-12T08:51:54.780Z,2.10
2023-02-12T08:54:24.383Z,2.40
2023-02-12T08:56:54.744Z,2.33
2023-02-12T08:59:21.621Z,2.80
2023-02-12T09:01:51.150Z,2.30
2023-02-12T09:04:24.886Z,2.80
2023-02-12T09:06:53.418Z,2.70
2023-02-12T09:09:20.402Z,2.50
2023-02-12T09:11:47.832Z,2.67
2023-02-12T09:14:17.276Z,2.93
2023-02-12T09:16:44.249Z,3.17
2023-02-12T09:19:13.368Z,3.93
2023-02-12T09:21:40.792Z,3.43
2023-02-12T09:24:07.991Z,3.47
2023-02-12T09:26:34.842Z,4.13
2023-02-12T09:29:03.134Z,3.50
2023-02-12T09:31:31.907Z,3.57
2023-02-12T09:34:01.387Z,3.70
2023-02-12T09:36:28.875Z,3.50
2023-02-12T09:38:56.666Z,3.50
2023-02-12T09:41:26.158Z,3.83
2023-02-12T09:44:16.797Z,3.73
2023-02-12T09:47:02.764Z,3.67
2023-02-12T09:50:01.924Z,4.17
2023-02-12T09:52:29.620Z,4.30
2023-02-12T09:54:58.074Z,5.07
2023-02-12T09:57:34.010Z,4.20
2023-02-12T10:00:24.233Z,4.27
2023-02-12T10:02:53.676Z,4.07
2023-02-12T10:05:28.984Z,4.57
2023-02-12T10:08:24.955Z,4.00
2023-02-12T10:11:09.469Z,3.77
2023-02-12T10:13:45.496Z,3.63
2023-02-12T10:16:31.004Z,4.00
2023-02-12T10:19:24.439Z,3.27
2023-02-12T10:22:03.793Z,4.00
2023-02-12T10:24:49.255Z,4.20
2023-02-12T10:27:22.059Z,3.97
2023-02-12T10:29:49.811Z,3.50
2023-02-12T10:32:28.596Z,4.50
2023-02-12T10:34:57.169Z,4.23
2023-02-12T10:37:26.902Z,4.50
2023-02-12T10:40:17.234Z,4.83
2023-02-12T10:42:47.460Z,4.40
2023-02-12T10:45:16.885Z,3.70
2023-02-12T10:47:46.043Z,4.57
2023-02-12T10:50:39.349Z,4.57
2023-02-12T10:53:06.272Z,3.97
2023-02-12T10:55:35.655Z,5.07
2023-02-12T10:58:04.925Z,4.37
2023-02-12T11:00:37.507Z,5.13
2023-02-12T11:03:12.950Z,3.83
2023-02-12T11:05:42.725Z,5.70
2023-02-12T11:08:29.657Z,4.53
2023-02-12T11:11:03.789Z,5.80
2023-02-12T11:13:31.241Z,4.97
2023-02-12T11:15:58.708Z,6.17
2023-02-12T11:18:28.906Z,6.53
2023-02-12T11:21:08.409Z,7.50
2023-02-12T11:23:41.131Z,7.60
2023-02-12T11:26:25.796Z,5.23
2023-02-12T11:28:58.863Z,5.80
2023-02-12T11:31:29.925Z,7.03
2023-02-12T11:34:08.217Z,6.17
2023-02-12T11:36:38.908Z,6.67
2023-02-12T11:39:07.778Z,7.70
2023-02-12T11:41:41.360Z,7.10
2023-02-12T11:44:26.478Z,6.33
2023-02-12T11:47:02.197Z,3.73
2023-02-12T11:49:32.856Z,6.80
2023-02-12T11:52:02.197Z,7.30
2023-02-12T11:54:41.502Z,6.67
2023-02-12T11:57:31.405Z,6.73
2023-02-12T12:00:00.691Z,3.70
2023-02-12T12:02:46.882Z,6.67
2023-02-12T12:05:19.757Z,7.10
2023-02-12T12:07:56.523Z,4.77
2023-02-12T12:10:39.741Z,7.73
2023-02-12T12:13:15.348Z,5.93
2023-02-12T12:16:09.926Z,6.37
2023-02-12T12:19:05.351Z,6.30
2023-02-12T12:21:41.585Z,4.17
2023-02-12T12:24:20.028Z,5.97
2023-02-12T12:27:00.263Z,7.77
2023-02-12T12:29:48.167Z,7.20
2023-02-12T12:32:17.924Z,7.87
2023-02-12T12:34:44.805Z,5.93
2023-02-12T12:37:17.672Z,5.57
2023-02-12T12:40:02.568Z,4.40
2023-02-12T12:42:50.919Z,7.43
2023-02-12T12:45:39.071Z,7.17
2023-02-12T12:48:25.992Z,5.65
2023-02-12T12:51:24.220Z,6.10
2023-02-12T12:54:25.797Z,4.60
2023-02-12T12:57:23.415Z,3.53
2023-02-12T13:00:25.010Z,5.83
2023-02-12T13:03:14.005Z,6.37
2023-02-12T13:06:07.955Z,6.10
2023-02-12T13:09:12.073Z,3.33
2023-02-12T13:11:48.731Z,4.60
2023-02-12T13:14:44.395Z,6.57
2023-02-12T13:17:50.415Z,7.10
2023-02-12T13:20:51.404Z,6.77
2023-02-12T13:23:37.598Z,3.93
2023-02-12T13:26:19.598Z,3.93
2023-02-12T13:28:52.644Z,5.03
2023-02-12T13:31:33.398Z,4.53
2023-02-12T13:34:05.181Z,5.43
2023-02-12T13:36:35.320Z,5.57
2023-02-12T13:39:14.121Z,5.17
2023-02-12T13:41:47.462Z,3.97
2023-02-12T13:44:17.032Z,6.90
2023-02-12T13:47:16.030Z,3.43
2023-02-12T13:49:54.583Z,6.37
2023-02-12T13:52:36.384Z,5.20
2023-02-12T13:55:09.519Z,5.67
2023-02-12T13:57:36.395Z,5.93
2023-02-12T14:00:08.329Z,6.23
2023-02-12T14:02:37.149Z,5.67
2023-02-12T14:05:16.425Z,6.20
2023-02-12T14:07:58.496Z,5.70
2023-02-12T14:10:37.936Z,6.33
2023-02-12T14:13:24.854Z,6.30
2023-02-12T14:15:54.325Z,5.27
2023-02-12T14:18:26.328Z,4.00
2023-02-12T14:21:12.297Z,6.07
2023-02-12T14:23:43.950Z,3.30
2023-02-12T14:26:12.590Z,3.63
2023-02-12T14:28:49.794Z,3.97
2023-02-12T14:31:19.875Z,6.70
2023-02-12T14:34:11.976Z,5.97
2023-02-12T14:36:42.832Z,6.27
2023-02-12T14:39:24.599Z,3.60
2023-02-12T14:41:57.186Z,6.47
2023-02-12T14:44:24.102Z,5.10
2023-02-12T14:46:53.118Z,6.03
2023-02-12T14:49:31.537Z,6.80
2023-02-12T14:52:13.674Z,6.77
2023-02-12T14:55:00.570Z,4.57
2023-02-12T14:57:43.134Z,5.97
2023-02-12T15:00:31.289Z,5.33
2023-02-12T15:03:11.254Z,4.70
2023-02-12T15:06:04.291Z,4.17
2023-02-12T15:08:56.173Z,6.20
2023-02-12T15:11:43.133Z,5.13
2023-02-12T15:14:24.615Z,5.00
2023-02-12T15:17:10.169Z,5.33
2023-02-12T15:19:59.730Z,5.83
2023-02-12T15:22:47.151Z,5.57
2023-02-12T15:25:30.405Z,5.37
2023-02-12T15:27:57.138Z,5.67
2023-02-12T15:30:27.779Z,4.67
2023-02-12T15:32:58.109Z,5.27
2023-02-12T15:35:32.268Z,5.13
2023-02-12T15:38:03.471Z,5.43
2023-02-12T15:40:31.545Z,5.47
2023-02-12T15:43:06.895Z,5.90
2023-02-12T15:45:36.117Z,5.73
2023-02-12T15:48:02.966Z,4.77
2023-02-12T15:50:32.082Z,5.37
2023-02-12T15:52:59.652Z,5.33
2023-02-12T15:55:30.538Z,5.80
2023-02-12T15:57:59.790Z,5.70
2023-02-12T16:00:37.780Z,5.37
2023-02-12T16:03:04.545Z,5.30
2023-02-12T16:05:35.010Z,5.37
2023-02-12T16:08:02.485Z,5.53
2023-02-12T16:10:29.539Z,5.23
2023-02-12T16:12:56.525Z,5.10
2023-02-12T16:15:30.778Z,5.37
2023-02-12T16:17:59.745Z,5.13
2023-02-12T16:20:29.722Z,5.47
2023-02-12T16:22:57.224Z,5.17
2023-02-12T16:25:28.434Z,4.90
2023-02-12T16:27:58.228Z,5.17
2023-02-12T16:30:43.416Z,5.30
2023-02-12T16:33:43.242Z,5.27
2023-02-12T16:36:30.338Z,4.90
2023-02-12T16:39:08.462Z,4.93
2023-02-12T16:41:53.241Z,5.33
2023-02-12T16:44:21.409Z,5.80
2023-02-12T16:46:56.145Z,5.13
2023-02-12T16:49:25.311Z,5.20
2023-02-12T16:51:53.073Z,5.03
2023-02-12T16:54:29.541Z,5.80
2023-02-12T16:56:56.552Z,5.97
2023-02-12T16:59:23.668Z,5.50
2023-02-12T17:02:03.902Z,5.60
2023-02-12T17:04:31.053Z,5.80
2023-02-12T17:06:58.420Z,6.20
2023-02-12T17:09:25.290Z,5.60
2023-02-12T17:11:52.074Z,5.37
2023-02-12T17:14:20.421Z,6.07
2023-02-12T17:16:48.144Z,6.37
2023-02-12T17:19:15.434Z,5.60
2023-02-12T17:21:44.672Z,6.30
2023-02-12T17:24:21.612Z,5.93
2023-02-12T17:26:50.543Z,5.90
2023-02-12T17:29:18.634Z,5.20
2023-02-12T17:31:45.991Z,5.63
2023-02-12T17:34:12.964Z,5.50
2023-02-12T17:36:40.740Z,5.90
2023-02-12T17:39:11.746Z,5.77
2023-02-12T17:42:00.172Z,5.03
2023-02-12T17:44:26.906Z,5.87
2023-02-12T17:46:53.950Z,5.60
2023-02-12T17:49:20.748Z,5.63
2023-02-12T17:51:47.570Z,5.40
2023-02-12T17:54:15.960Z,5.03
2023-02-12T17:56:42.795Z,5.40
2023-02-12T17:59:10.321Z,5.40
2023-02-12T18:01:37.471Z,5.00
2023-02-12T18:04:04.389Z,6.07
2023-02-12T18:06:31.943Z,5.40
2023-02-12T18:09:01.628Z,4.90
2023-02-12T18:11:29.376Z,6.00
2023-02-12T18:13:57.655Z,4.77
2023-02-12T18:16:27.517Z,5.87
2023-02-12T18:18:55.039Z,5.50
2023-02-12T18:21:21.874Z,5.03
2023-02-12T18:23:48.831Z,6.30
2023-02-12T18:26:21.342Z,6.53
2023-02-12T18:28:49.019Z,6.33
2023-02-12T18:31:18.263Z,6.10
2023-02-12T18:33:45.063Z,5.60
2023-02-12T18:36:15.203Z,6.13
2023-02-12T18:38:42.777Z,6.23
2023-02-12T18:41:12.348Z,6.30
2023-02-12T18:43:39.577Z,6.40
2023-02-12T18:46:14.587Z,5.67
2023-02-12T18:48:42.448Z,6.17
2023-02-12T18:51:13.089Z,6.23
2023-02-12T18:53:39.815Z,6.10
2023-02-12T18:56:08.621Z,4.33
2023-02-12T18:58:36.125Z,6.07
2023-02-12T19:01:13.610Z,6.83
2023-02-12T19:03:40.496Z,6.27
2023-02-12T19:06:07.324Z,5.60
2023-02-12T19:08:34.155Z,7.83
2023-02-12T19:11:01.019Z,5.73
2023-02-12T19:13:27.906Z,6.67
2023-02-12T19:15:54.895Z,6.17
2023-02-12T19:18:21.679Z,6.30
2023-02-12T19:20:48.435Z,6.17
2023-02-12T19:23:15.475Z,6.83
2023-02-12T19:25:45.096Z,6.87
2023-02-12T19:28:12.740Z,6.87
2023-02-12T19:30:41.209Z,7.03
2023-02-12T19:33:08.417Z,6.93
2023-02-12T19:35:35.151Z,8.13
2023-02-12T19:38:02.910Z,7.33
2023-02-12T19:40:29.741Z,6.80
2023-02-12T19:42:56.454Z,6.53
2023-02-12T19:45:23.187Z,5.23
2023-02-12T19:47:51.693Z,6.73
2023-02-12T19:50:18.700Z,6.80
2023-02-12T19:52:45.461Z,6.10
2023-02-12T19:55:12.161Z,6.20
2023-02-12T19:57:41.028Z,6.10
2023-02-12T20:00:08.518Z,6.33
2023-02-12T20:02:35.469Z,3.20
2023-02-12T20:05:02.219Z,6.47
2023-02-12T20:07:29.044Z,5.97
2023-02-12T20:09:55.877Z,6.30
2023-02-12T20:12:22.652Z,7.20
2023-02-12T20:14:49.443Z,6.93
2023-02-12T20:17:18.529Z,5.30
2023-02-12T20:19:45.381Z,6.30
2023-02-12T20:22:12.046Z,6.97
2023-02-12T20:24:38.845Z,7.53
2023-02-12T20:27:05.673Z,7.80
2023-02-12T20:29:37.084Z,7.00
2023-02-12T20:32:03.933Z,7.43
2023-02-12T20:34:36.681Z,7.57
2023-02-12T20:37:09.224Z,7.87
2023-02-12T20:39:36.002Z,7.30
2023-02-12T20:42:02.813Z,7.50
2023-02-12T20:44:31.008Z,8.00
2023-02-12T20:46:57.871Z,8.23
2023-02-12T20:49:25.304Z,8.87
2023-02-12T20:51:52.566Z,9.43
2023-02-12T20:54:19.287Z,8.60
2023-02-12T20:56:46.019Z,7.70
2023-02-12T20:59:12.756Z,6.97
2023-02-12T21:01:41.554Z,7.93
2023-02-12T21:04:11.478Z,8.40
2023-02-12T21:06:41.643Z,8.40
2023-02-12T21:09:10.049Z,8.53
2023-02-12T21:11:37.510Z,8.47
2023-02-12T21:14:20.937Z,7.70
2023-02-12T21:16:48.942Z,8.77
2023-02-12T21:19:16.144Z,7.33
2023-02-12T21:21:46.865Z,8.07
2023-02-12T21:24:19.600Z,8.00
2023-02-12T21:26:46.944Z,8.17
2023-02-12T21:29:14.171Z,6.87
2023-02-12T21:31:43.282Z,5.57
2023-02-12T21:34:28.406Z,8.07
2023-02-12T21:37:15.409Z,9.00
2023-02-12T21:39:42.204Z,9.33
2023-02-12T21:42:10.163Z,9.17
2023-02-12T21:44:36.838Z,9.17
2023-02-12T21:47:04.207Z,9.80
2023-02-12T21:49:30.995Z,10.13
2023-02-12T21:52:01.819Z,10.17
2023-02-12T21:54:29.583Z,9.67
2023-02-12T21:56:57.313Z,10.40
2023-02-12T21:59:24.931Z,8.33
2023-02-12T22:01:54.159Z,10.73
2023-02-12T22:04:21.128Z,11.30
2023-02-12T22:06:50.316Z,11.33
2023-02-12T22:09:19.456Z,11.87
2023-02-12T22:11:46.280Z,11.43
2023-02-12T22:14:15.205Z,11.83
2023-02-12T22:16:42.481Z,12.30
2023-02-12T22:19:09.656Z,10.67
2023-02-12T22:21:39.493Z,12.63
2023-02-12T22:24:08.953Z,13.07
2023-02-12T22:26:36.004Z,13.50
2023-02-12T22:29:05.716Z,11.40
2023-02-12T22:31:34.127Z,12.37
2023-02-12T22:34:04.466Z,10.33
2023-02-12T22:36:33.592Z,11.63
2023-02-12T22:39:04.125Z,12.33
2023-02-12T22:41:31.211Z,12.00
2023-02-12T22:44:02.692Z,12.17
2023-02-12T22:46:29.441Z,11.90
2023-02-12T22:48:56.370Z,13.10
2023-02-12T22:51:24.427Z,11.93
2023-02-12T22:53:51.225Z,11.40
2023-02-12T22:56:18.856Z,10.93
2023-02-12T22:58:46.424Z,11.60
2023-02-12T23:01:15.502Z,13.00
2023-02-12T23:03:42.821Z,12.13
2023-02-12T23:06:17.949Z,10.40
2023-02-12T23:08:44.984Z,11.90
2023-02-12T23:11:12.165Z,11.00
2023-02-12T23:13:39.350Z,11.60
2023-02-12T23:16:10.885Z,11.27
2023-02-12T23:18:38.015Z,10.93
2023-02-12T23:21:05.265Z,10.97
2023-02-12T23:23:32.038Z,11.33
2023-02-12T23:25:58.834Z,11.13
2023-02-12T23:28:26.101Z,10.83
2023-02-12T23:30:53.197Z,10.80
2023-02-12T23:33:20.454Z,10.43
2023-02-12T23:35:47.937Z,11.93
2023-02-12T23:38:15.381Z,12.73
2023-02-12T23:40:42.734Z,12.30
2023-02-12T23:43:10.243Z,13.50
2023-02-12T23:45:37.119Z,12.30
2023-02-12T23:48:04.041Z,13.17
2023-02-12T23:50:30.827Z,12.90
2023-02-12T23:52:59.137Z,11.63
2023-02-12T23:55:25.970Z,10.57
2023-02-12T23:57:52.670Z,12.00
